Time;durP1;ratioP1;P1;durP2;ratioP2;P2;SDS_P1;SDS_P2;PMS_P1;PMS_P2;Temp;Humidity;BMP_temperature;BMP_pressure;BME280_temperature;BME280_humidity;BME280_pressure;Samples;Min_cycle;Max_cycle;Signal;HPM_P1;HPM_P2
2023/09/15 05:15:10;;;;;;;;;;;;;;;6.04;100.00;99893.75;5200818;23;19957;-84
2023/09/15 05:17:36;;;;;;;;;;;;;;;6.17;100.00;99889.09;5007166;28;20380;-84
2023/09/15 05:20:01;;;;;;;;;;;;;;;6.22;100.00;99889.84;5007110;28;19921;-84
2023/09/15 05:22:26;;;;;;;;;;;;;;;6.25;100.00;99887.13;5024734;28;19917;-84
2023/09/15 05:24:52;;;;;;;;;;;;;;;6.16;100.00;99884.75;5007605;28;19925;-84
2023/09/15 05:27:17;;;;;;;;;;;;;;;6.27;100.00;99892.38;5023695;28;20368;-83
2023/09/15 05:29:44;;;;;;;;;;;;;;;6.22;100.00;99886.34;5006031;28;19921;-84
2023/09/15 05:32:09;;;;;;;;;;;;;;;6.27;100.00;99892.38;5023532;28;20408;-84
2023/09/15 05:34:34;;;;;;;;;;;;;;;6.41;100.00;99886.78;5024567;28;19977;-85
2023/09/15 05:36:59;;;;;;;;;;;;;;;6.41;100.00;99887.63;5017534;28;20265;-83
2023/09/15 05:39:24;;;;;;;;;;;;;;;6.48;100.00;99888.38;5024984;28;19917;-83
2023/09/15 05:41:50;;;;;;;;;;;;;;;6.49;100.00;99890.09;5000822;28;19964;-82
2023/09/15 05:44:18;;;;;;;;;;;;;;;6.49;100.00;99887.44;5005505;28;20387;-83
2023/09/15 05:46:43;;;;;;;;;;;;;;;6.50;100.00;99892.69;5023762;28;20018;-84
2023/09/15 05:49:09;;;;;;;;;;;;;;;6.52;100.00;99895.28;5006883;28;19960;-84
2023/09/15 05:51:34;;;;;;;;;;;;;;;6.51;100.00;99894.44;5024516;28;19927;-84
2023/09/15 05:53:59;;;;;;;;;;;;;;;6.54;100.00;99890.84;5024219;28;19968;-83
2023/09/15 05:56:24;;;;;;;;;;;;;;;6.57;100.00;99887.28;5024764;28;19925;-84
2023/09/15 05:58:49;;;;;;;;;;;;;;;6.54;100.00;99882.94;5022796;28;19952;-84
2023/09/15 06:01:15;;;;;;;;;;;;;;;6.53;100.00;99891.75;5024342;28;19924;-83
2023/09/15 06:03:40;;;;;;;;;;;;;;;6.58;100.00;99889.00;5023257;28;19921;-83
2023/09/15 06:06:05;;;;;;;;;;;;;;;6.57;100.00;99885.50;5023917;28;20407;-83
2023/09/15 06:08:30;;;;;;;;;;;;;;;6.48;100.00;99886.59;5024258;28;20008;-83
2023/09/15 06:10:56;;;;;;;;;;;;;;;6.61;100.00;99879.25;5024369;28;20379;-83
2023/09/15 06:13:22;;;;;;;;;;;;;;;6.67;100.00;99886.13;5022521;28;20384;-90
2023/09/15 06:15:47;;;;;;;;;;;;;;;6.61;100.00;99883.66;5006918;28;19928;-83
2023/09/15 06:18:12;;;;;;;;;;;;;;;6.56;100.00;99889.03;5024088;28;19921;-84
2023/09/15 06:20:38;;;;;;;;;;;;;;;6.62;100.00;99888.00;5005888;28;20044;-83
2023/09/15 06:23:03;;;;;;;;;;;;;;;6.57;100.00;99885.50;5005627;28;19918;-83
2023/09/15 06:25:30;;;;;;;;;;;;;;;6.71;100.00;99879.88;5005993;28;19921;-81
2023/09/15 06:27:56;;;;;;;;;;;;;;;6.66;100.00;99887.91;5022971;28;19924;-82
2023/09/15 06:30:21;;;;;;;;;;;;;;;6.65;100.00;99888.81;5022171;28;20276;-83
2023/09/15 06:32:46;;;;;;;;;;;;;;;6.69;100.00;99887.81;5023337;28;19921;-84
2023/09/15 06:35:13;;;;;;;;;;;;;;;6.65;100.00;99883.56;5023728;28;19928;-84
2023/09/15 06:37:38;;;;;;;;;;;;;;;6.68;100.00;99891.34;4989993;28;20303;-84
2023/09/15 06:40:06;;;;;;;;;;;;;;;6.64;100.00;99889.72;5023505;28;19918;-84
2023/09/15 06:42:31;;;;;;;;;;;;;;;6.67;100.00;99889.66;5005678;28;20410;-84
2023/09/15 06:44:56;;;;;;;;;;;;;;;6.67;100.00;99883.50;5022589;28;20012;-82
2023/09/15 06:47:21;;;;;;;;;;;;;;;6.68;100.00;99883.44;5023471;28;19961;-82
2023/09/15 06:49:47;;;;;;;;;;;;;;;6.70;100.00;99888.69;5023081;28;19928;-82
2023/09/15 06:52:12;;;;;;;;;;;;;;;6.66;100.00;99890.53;5023288;28;19921;-82
2023/09/15 06:54:37;;;;;;;;;;;;;;;6.70;100.00;99889.56;4989590;28;19922;-82
2023/09/15 06:57:03;;;;;;;;;;;;;;;6.71;100.00;99885.16;5023320;28;19964;-83
2023/09/15 06:59:28;;;;;;;;;;;;;;;6.72;100.00;99889.53;5021536;28;19921;-82
2023/09/15 07:01:53;;;;;;;;;;;;;;;6.71;100.00;99893.91;5023177;28;19917;-82
2023/09/15 07:04:19;;;;;;;;;;;;;;;6.68;100.00;99887.88;4999785;28;19921;-84
2023/09/15 07:06:44;;;;;;;;;;;;;;;6.69;100.00;99887.81;5005194;28;19961;-84
2023/09/15 07:51:27;;;;;;;;;;;;;;;6.77;100.00;99863.06;5028858;28;19936;-84
2023/09/15 07:53:52;;;;;;;;;;;;;;;6.81;100.00;99855.06;5031619;28;19987;-84
2023/09/15 07:56:18;;;;;;;;;;;;;;;6.75;100.00;99855.22;5032259;28;20252;-85
2023/09/15 07:58:43;;;;;;;;;;;;;;;6.76;100.00;99853.44;5032350;28;19978;-82
2023/09/15 08:01:09;;;;;;;;;;;;;;;6.78;100.00;99854.25;5032066;28;20004;-85
2023/09/15 08:03:34;;;;;;;;;;;;;;;6.80;100.00;99855.97;5030715;28;19928;-85
2023/09/15 08:05:59;;;;;;;;;;;;;;;6.78;100.00;99864.78;5032096;28;20007;-81
2023/09/15 08:08:25;;;;;;;;;;;;;;;6.80;100.00;99849.84;5032046;28;20324;-86
2023/09/15 08:10:50;;;;;;;;;;;;;;;6.78;100.00;99854.25;5031939;28;19917;-85
2023/09/15 08:13:15;;;;;;;;;;;;;;;6.83;100.00;99849.72;5032057;28;20380;-86
2023/09/15 08:15:40;;;;;;;;;;;;;;;6.84;100.00;99843.56;5031877;28;19917;-85
2023/09/15 08:18:06;;;;;;;;;;;;;;;6.86;100.00;99844.38;5030640;28;20315;-86
2023/09/15 08:20:31;;;;;;;;;;;;;;;6.86;100.00;99842.63;5032020;28;19924;-85
2023/09/15 08:22:58;;;;;;;;;;;;;;;6.85;100.00;99851.44;5031931;28;19921;-84
2023/09/15 08:25:23;;;;;;;;;;;;;;;6.84;100.00;99854.09;5031249;28;19917;-85
2023/09/15 08:27:49;;;;;;;;;;;;;;;6.86;100.00;99857.53;5016901;28;19967;-85
2023/09/15 08:30:14;;;;;;;;;;;;;;;6.85;100.00;99848.78;5035969;28;20344;-84
2023/09/15 08:32:40;;;;;;;;;;;;;;;6.86;100.00;99842.63;5034275;28;20399;-84
2023/09/15 08:35:05;;;;;;;;;;;;;;;6.90;100.00;99851.31;5035945;28;20007;-85
2023/09/15 08:37:31;;;;;;;;;;;;;;;6.87;100.00;99848.75;5035667;28;19917;-86
2023/09/15 08:39:56;;;;;;;;;;;;;;;6.90;100.00;99846.03;5035694;28;20333;-85
2023/09/15 08:42:31;;;;;;;;;;;;;;;6.87;100.00;99849.59;5035708;28;20365;-85
2023/09/15 08:44:57;;;;;;;;;;;;;;;6.89;100.00;99846.94;5035080;28;19921;-85
2023/09/15 08:47:24;;;;;;;;;;;;;;;6.88;100.00;99837.31;5035395;28;19924;-86
2023/09/15 08:49:51;;;;;;;;;;;;;;;6.88;100.00;99840.81;5034058;28;20010;-86
2023/09/15 08:52:17;;;;;;;;;;;;;;;6.92;100.00;99831.03;5035109;28;19925;-84
2023/09/15 08:54:43;;;;;;;;;;;;;;;6.96;100.00;99837.13;5035529;28;20291;-84
2023/09/15 08:57:08;;;;;;;;;;;;;;;6.89;100.00;99833.75;5035425;28;19917;-82
2023/09/15 08:59:34;;;;;;;;;;;;;;;6.93;100.00;99839.84;5035272;28;20004;-81
2023/09/15 09:02:00;;;;;;;;;;;;;;;6.92;100.00;99833.69;5035210;28;20014;-80
2023/09/15 09:04:26;;;;;;;;;;;;;;;6.90;100.00;99830.22;5033412;28;20287;-86
2023/09/15 09:06:52;;;;;;;;;;;;;;;6.90;100.00;99828.44;5035042;28;20004;-80
2023/09/15 09:09:17;;;;;;;;;;;;;;;6.92;100.00;99833.69;5017399;28;20390;-80
2023/09/15 09:11:42;;;;;;;;;;;;;;;6.95;100.00;99825.69;5034916;28;19923;-80
2023/09/15 09:14:11;;;;;;;;;;;;;;;6.96;100.00;99837.13;5035078;28;19960;-80
2023/09/15 09:16:37;;;;;;;;;;;;;;;6.92;100.00;99831.03;5034197;28;19928;-80
2023/09/15 09:19:06;;;;;;;;;;;;;;;6.98;100.00;99824.75;5033590;28;20365;-81
2023/09/15 09:21:31;;;;;;;;;;;;;;;6.98;100.00;99820.34;5034883;28;19917;-80
2023/09/15 09:23:57;;;;;;;;;;;;;;;6.99;100.00;99823.84;5034750;28;19921;-82
2023/09/15 09:26:22;;;;;;;;;;;;;;;6.97;100.00;99817.75;5034921;28;19925;-80
2023/09/15 09:28:48;;;;;;;;;;;;;;;6.98;100.00;99815.06;5034620;28;19927;-83
2023/09/15 09:31:13;;;;;;;;;;;;;;;7.03;100.00;99817.59;5034985;28;20283;-80
2023/09/15 09:33:39;;;;;;;;;;;;;;;7.04;100.00;99812.28;5015612;28;19917;-80
2023/09/15 09:36:12;;;;;;;;;;;;;;;7.05;100.00;99811.38;5034698;28;20093;-81
2023/09/15 09:38:37;;;;;;;;;;;;;;;7.04;100.00;99807.00;5033397;28;19921;-83
2023/09/15 09:41:05;;;;;;;;;;;;;;;7.03;100.00;99807.91;5034537;28;19924;-81
2023/09/15 09:43:33;;;;;;;;;;;;;;;7.04;100.00;99803.50;5016111;28;19921;-81
2023/09/15 09:45:58;;;;;;;;;;;;;;;7.03;100.00;99802.63;5034499;28;19917;-80
2023/09/15 09:48:26;;;;;;;;;;;;;;;7.03;100.00;99791.25;5033293;28;19928;-82
2023/09/15 09:50:52;;;;;;;;;;;;;;;7.01;100.00;99796.56;5013281;28;20012;-86
2023/09/15 09:53:26;;;;;;;;;;;;;;;7.07;100.00;99793.75;5014452;28;19922;-82
2023/09/15 09:55:52;;;;;;;;;;;;;;;7.03;100.00;99778.91;5013785;28;19928;-80
2023/09/15 09:58:17;;;;;;;;;;;;;;;7.06;100.00;99777.97;5014714;28;20336;-80
2023/09/15 10:00:47;;;;;;;;;;;;;;;7.08;100.00;99782.31;5014618;28;20023;-81
2023/09/15 10:03:12;;;;;;;;;;;;;;;7.11;100.00;99780.47;5012654;28;19922;-83
2023/09/15 10:05:38;;;;;;;;;;;;;;;7.09;100.00;99781.38;5015001;28;19917;-86
2023/09/15 10:08:04;;;;;;;;;;;;;;;7.06;100.00;99781.47;5014924;28;19944;-85
2023/09/15 10:10:30;;;;;;;;;;;;;;;7.08;100.00;99779.69;5014862;28;20272;-84
2023/09/15 10:12:55;;;;;;;;;;;;;;;7.12;100.00;99776.94;5014327;28;19929;-86
2023/09/15 10:15:22;;;;;;;;;;;;;;;7.12;100.00;99775.16;5013795;28;19918;-80
2023/09/15 10:17:47;;;;;;;;;;;;;;;7.10;100.00;99771.72;5013055;28;19956;-85
2023/09/15 10:20:12;;;;;;;;;;;;;;;7.12;100.00;99769.06;5015045;28;19964;-86
2023/09/15 10:22:38;;;;;;;;;;;;;;;7.16;100.00;99770.66;5013980;28;19924;-81
2023/09/15 10:25:03;;;;;;;;;;;;;;;7.14;100.00;99762.81;5013935;28;19921;-82
2023/09/15 10:27:29;;;;;;;;;;;;;;;7.15;100.00;99766.28;5014115;28;19920;-84
2023/09/15 10:30:00;;;;;;;;;;;;;;;7.18;100.00;99769.72;5013887;28;20269;-84
2023/09/15 10:32:26;;;;;;;;;;;;;;;7.19;100.00;99760.91;5013910;28;19922;-86
2023/09/15 10:34:51;;;;;;;;;;;;;;;7.18;100.00;99763.56;5012493;28;19921;-84
2023/09/15 10:37:16;;;;;;;;;;;;;;;7.25;100.00;99754.59;5013887;28;19941;-82
2023/09/15 10:39:42;;;;;;;;;;;;;;;7.16;100.00;99754.84;5013798;28;20384;-83
2023/09/15 10:42:07;;;;;;;;;;;;;;;7.22;100.00;99758.16;5013867;28;20016;-81
2023/09/15 10:44:33;;;;;;;;;;;;;;;7.31;100.00;99758.81;5012744;28;19924;-80
2023/09/15 10:46:59;;;;;;;;;;;;;;;7.23;100.00;99753.78;5013459;28;19922;-81
2023/09/15 10:49:25;;;;;;;;;;;;;;;7.27;100.00;99751.00;5013812;28;20295;-81
2023/09/15 10:51:53;;;;;;;;;;;;;;;7.29;100.00;99740.41;5033220;28;19997;-82
2023/09/15 10:54:19;;;;;;;;;;;;;;;7.24;100.00;99742.31;5033243;28;19917;-81
2023/09/15 10:56:45;;;;;;;;;;;;;;;7.21;100.00;99742.41;5033709;28;19917;-86
2023/09/15 10:59:10;;;;;;;;;;;;;;;7.26;100.00;99737.88;5033121;28;19927;-80
2023/09/15 11:01:36;;;;;;;;;;;;;;;7.28;100.00;99736.91;5015487;28;19967;-80
2023/09/15 11:04:03;;;;;;;;;;;;;;;7.32;100.00;99729.75;5031860;28;19932;-80
2023/09/15 11:06:29;;;;;;;;;;;;;;;7.25;100.00;99723.81;5033142;28;19940;-81
2023/09/15 11:08:56;;;;;;;;;;;;;;;7.27;100.00;99721.13;5014380;28;19917;-80
2023/09/15 11:11:21;;;;;;;;;;;;;;;7.31;100.00;99722.78;5032958;28;20355;-80
2023/09/15 11:13:47;;;;;;;;;;;;;;;7.30;100.00;99720.19;5032965;28;19967;-81
2023/09/15 11:16:12;;;;;;;;;;;;;;;7.31;100.00;99714.88;5032977;28;19948;-81
2023/09/15 11:18:38;;;;;;;;;;;;;;;7.31;100.00;99716.63;5031497;28;19956;-81
2023/09/15 11:21:05;;;;;;;;;;;;;;;7.34;100.00;99709.50;5032688;28;19917;-83
2023/09/15 11:23:30;;;;;;;;;;;;;;;7.31;100.00;99700.81;5032446;28;19917;-85
2023/09/15 11:26:03;;;;;;;;;;;;;;;7.32;100.00;99697.28;5032718;28;19964;-80
2023/09/15 11:28:32;;;;;;;;;;;;;;;7.28;100.00;99693.88;5032144;28;19987;-82
2023/09/15 11:30:57;;;;;;;;;;;;;;;7.34;100.00;99688.44;5031771;28;19960;-84
2023/09/15 11:33:22;;;;;;;;;;;;;;;7.31;100.00;99685.88;5031208;28;20422;-81
2023/09/15 11:35:48;;;;;;;;;;;;;;;7.28;100.00;99680.72;5032676;28;20371;-80
2023/09/15 11:38:13;;;;;;;;;;;;;;;7.32;100.00;99677.03;5032161;28;20012;-80
2023/09/15 11:40:44;;;;;;;;;;;;;;;7.33;100.00;99668.25;5014532;28;20360;-83
2023/09/15 11:43:10;;;;;;;;;;;;;;;7.40;100.00;99669.78;5031749;28;19928;-87
2023/09/15 11:45:35;;;;;;;;;;;;;;;7.39;100.00;99667.19;5032202;28;19921;-86
2023/09/15 11:48:03;;;;;;;;;;;;;;;7.38;100.00;99665.47;5031099;28;19917;-80
2023/09/15 11:50:29;;;;;;;;;;;;;;;7.37;100.00;99659.34;5032203;28;20388;-87
2023/09/15 11:52:54;;;;;;;;;;;;;;;7.37;100.00;99653.19;5032376;28;19918;-82
2023/09/15 11:55:20;;;;;;;;;;;;;;;7.41;100.00;99654.81;5032243;28;19920;-80
2023/09/15 11:57:46;;;;;;;;;;;;;;;7.38;100.00;99650.50;5032312;28;20058;-83
2023/09/15 12:00:15;;;;;;;;;;;;;;;7.42;100.00;99654.78;5032507;28;20015;-81
2023/09/15 12:02:41;;;;;;;;;;;;;;;7.40;100.00;99646.06;5029869;28;20064;-82
2023/09/15 12:05:06;;;;;;;;;;;;;;;7.51;100.00;99650.13;5031792;28;20008;-81
2023/09/15 12:07:32;;;;;;;;;;;;;;;7.38;100.00;99650.50;5032135;28;20360;-82
2023/09/15 12:09:57;;;;;;;;;;;;;;;7.34;100.00;99643.63;5032187;28;19917;-82
2023/09/15 12:12:23;;;;;;;;;;;;;;;7.36;100.00;99640.94;5014334;28;19920;-82
2023/09/15 12:14:49;;;;;;;;;;;;;;;7.42;100.00;99651.28;5031930;28;19924;-82
2023/09/15 12:17:15;;;;;;;;;;;;;;;7.41;100.00;99646.91;5031822;28;19921;-82
2023/09/15 12:19:40;;;;;;;;;;;;;;;7.43;100.00;99642.44;5012927;28;19917;-81
2023/09/15 12:22:05;;;;;;;;;;;;;;;7.42;100.00;99641.59;5031911;28;19924;-81
2023/09/15 12:24:31;;;;;;;;;;;;;;;7.46;100.00;99632.66;5031870;28;20007;-82
2023/09/15 12:26:59;;;;;;;;;;;;;;;7.46;100.00;99627.38;5014008;28;19927;-83
2023/09/15 12:29:25;;;;;;;;;;;;;;;7.50;100.00;99624.66;5031839;28;20266;-80
2023/09/15 12:31:50;;;;;;;;;;;;;;;7.51;100.00;99629.03;5031969;28;19922;-81
2023/09/15 12:34:19;;;;;;;;;;;;;;;7.51;100.00;99636.94;5030488;28;19968;-82
2023/09/15 12:36:48;;;;;;;;;;;;;;;7.51;100.00;99629.03;5031395;28;19974;-81
2023/09/15 12:39:14;;;;;;;;;;;;;;;7.54;100.00;99628.91;5031210;28;19921;-84
2023/09/15 12:41:39;;;;;;;;;;;;;;;7.54;100.00;99621.88;5030241;28;19921;-82
2023/09/15 12:44:05;;;;;;;;;;;;;;;7.52;100.00;99614.94;5031546;28;20008;-82
2023/09/15 12:46:30;;;;;;;;;;;;;;;7.52;100.00;99614.94;5031830;28;20348;-83
2023/09/15 12:48:55;;;;;;;;;;;;;;;7.54;100.00;99616.59;5012503;28;19913;-82
2023/09/15 12:51:20;;;;;;;;;;;;;;;7.53;100.00;99609.63;5031424;28;19943;-81
2023/09/15 12:53:46;;;;;;;;;;;;;;;7.56;100.00;99617.44;5031735;28;19979;-82
2023/09/15 12:56:11;;;;;;;;;;;;;;;7.50;100.00;99608.81;5013749;28;19917;-83
2023/09/15 12:58:36;;;;;;;;;;;;;;;7.56;100.00;99611.25;5031489;28;19927;-82
2023/09/15 13:01:02;;;;;;;;;;;;;;;7.57;100.00;99600.66;5031487;28;20000;-82
2023/09/15 13:03:28;;;;;;;;;;;;;;;7.58;100.00;99597.13;5012495;28;19917;-81
2023/09/15 13:05:53;;;;;;;;;;;;;;;7.59;100.00;99597.97;5030555;28;20394;-84
2023/09/15 13:08:19;;;;;;;;;;;;;;;7.62;100.00;99601.38;5031388;28;19913;-81
2023/09/15 13:10:44;;;;;;;;;;;;;;;10.66;100.00;99570.81;5013707;28;19917;-82
2023/09/15 13:13:10;;;;;;;;;;;;;;;7.46;100.00;99573.81;5032993;28;19956;-83
2023/09/15 13:15:36;;;;;;;;;;;;;;;6.62;100.00;99578.22;5035118;28;19943;-82
2023/09/15 13:18:02;;;;;;;;;;;;;;;6.33;100.00;99573.78;5032061;28;20439;-82
2023/09/15 13:20:27;;;;;;;;;;;;;;;6.10;100.00;99569.19;5034856;28;19917;-82
2023/09/15 13:22:53;;;;;;;;;;;;;;;5.86;100.00;99568.94;5034814;28;19917;-82
2023/09/15 13:25:18;;;;;;;;;;;;;;;5.79;100.00;99568.22;5017148;28;19917;-82
2023/09/15 13:27:43;;;;;;;;;;;;;;;5.76;100.00;99556.91;5034959;28;20289;-82
2023/09/15 13:30:10;;;;;;;;;;;;;;;5.66;100.00;99560.69;5034715;28;20063;-82
2023/09/15 13:32:35;;;;;;;;;;;;;;;5.63;100.00;99566.91;5016361;28;19928;-82
2023/09/15 13:35:01;;;;;;;;;;;;;;;5.55;100.00;99550.47;5033194;28;19916;-82
2023/09/15 13:37:26;;;;;;;;;;;;;;;5.55;100.00;99559.22;5034735;28;19917;-82
2023/09/15 13:39:51;;;;;;;;;;;;;;;5.41;100.00;99550.84;5016746;28;19959;-82
2023/09/15 13:42:38;;;;;;;;;;;;;;;5.42;100.00;99555.16;5034415;28;19921;-82
2023/09/15 13:45:03;;;;;;;;;;;;;;;5.34;100.00;99544.00;5034798;28;19976;-82
2023/09/15 13:47:32;;;;;;;;;;;;;;;5.28;100.00;99545.88;5034147;28;19921;-82
2023/09/15 13:50:02;;;;;;;;;;;;;;;5.28;100.00;99538.00;5032308;28;19921;-82
2023/09/15 13:52:28;;;;;;;;;;;;;;;5.26;100.00;99534.56;5033795;28;20012;-82
2023/09/15 13:54:56;;;;;;;;;;;;;;;5.33;100.00;99532.63;5034427;28;20067;-82
2023/09/15 13:57:21;;;;;;;;;;;;;;;5.30;100.00;99529.19;5034209;28;20394;-84
2023/09/15 13:59:47;;;;;;;;;;;;;;;5.20;100.00;99523.31;5034294;28;19928;-82
2023/09/15 14:02:12;;;;;;;;;;;;;;;5.23;100.00;99525.88;5034009;28;20327;-83
2023/09/15 14:04:37;;;;;;;;;;;;;;;5.33;100.00;99526.50;5032013;28;20351;-83
2023/09/15 14:07:05;;;;;;;;;;;;;;;5.15;100.00;99522.56;5034621;28;19928;-82
2023/09/15 14:09:30;;;;;;;;;;;;;;;5.11;100.00;99519.19;5034300;28;19928;-82
2023/09/15 14:11:56;;;;;;;;;;;;;;;5.15;100.00;99514.69;5033893;28;20291;-82
2023/09/15 14:14:21;;;;;;;;;;;;;;;5.09;100.00;99507.84;5034020;28;19928;-82
2023/09/15 14:16:46;;;;;;;;;;;;;;;5.16;100.00;99512.03;5033804;28;19921;-82
2023/09/15 14:19:11;;;;;;;;;;;;;;;5.08;100.00;99506.13;5032624;28;19975;-83
2023/09/15 14:21:37;;;;;;;;;;;;;;;5.08;100.00;99506.13;5033635;28;20284;-83
2023/09/15 14:24:02;;;;;;;;;;;;;;;5.07;100.00;99504.38;5015537;28;20020;-83
2023/09/15 14:26:28;;;;;;;;;;;;;;;5.01;100.00;99499.28;5033356;28;19927;-82
2023/09/15 14:28:53;;;;;;;;;;;;;;;5.01;100.00;99501.91;5033725;28;20257;-82
2023/09/15 14:31:18;;;;;;;;;;;;;;;5.70;100.00;99499.25;5015862;28;19924;-83
2023/09/15 14:33:43;;;;;;;;;;;;;;;6.08;100.00;99498.22;5032591;28;19913;-80
2023/09/15 14:36:09;;;;;;;;;;;;;;;6.33;100.00;99493.09;5033602;28;19917;-83
2023/09/15 14:38:34;;;;;;;;;;;;;;;6.47;100.00;99500.56;5015690;28;20060;-83
2023/09/15 14:40:59;;;;;;;;;;;;;;;6.56;100.00;99502.06;5033496;28;19913;-82
2023/09/15 14:43:25;;;;;;;;;;;;;;;6.66;100.00;99494.72;5033310;28;19927;-83
2023/09/15 14:45:50;;;;;;;;;;;;;;;6.68;100.00;99493.75;5015686;28;20083;-83
2023/09/15 14:48:16;;;;;;;;;;;;;;;6.72;100.00;99497.16;5032052;28;20003;-86
2023/09/15 14:50:41;;;;;;;;;;;;;;;6.74;100.00;99490.06;5032396;28;19921;-83
2023/09/15 14:53:06;;;;;;;;;;;;;;;6.77;100.00;99489.13;5033157;28;19925;-82
2023/09/15 14:55:32;;;;;;;;;;;;;;;6.86;100.00;99492.31;5033300;28;19928;-82
2023/09/15 14:57:57;;;;;;;;;;;;;;;6.91;100.00;99482.50;5033195;28;19917;-82
2023/09/15 15:00:22;;;;;;;;;;;;;;;6.94;100.00;99484.19;5033123;28;20382;-83
2023/09/15 15:02:48;;;;;;;;;;;;;;;6.95;100.00;99477.97;5031568;28;19917;-82
2023/09/15 15:05:13;;;;;;;;;;;;;;;6.97;100.00;99476.13;5032996;28;20331;-83
2023/09/15 15:07:38;;;;;;;;;;;;;;;7.07;100.00;99471.47;5032976;28;20330;-86
2023/09/15 15:10:04;;;;;;;;;;;;;;;7.01;100.00;99466.38;5032956;28;19921;-82
2023/09/15 15:12:31;;;;;;;;;;;;;;;7.05;100.00;99462.72;5033002;28;19917;-84
2023/09/15 15:14:57;;;;;;;;;;;;;;;7.06;100.00;99449.50;5015472;28;19921;-84
2023/09/15 15:17:22;;;;;;;;;;;;;;;7.10;100.00;99455.56;5033271;28;19936;-84
2023/09/15 15:19:47;;;;;;;;;;;;;;;7.11;100.00;99457.25;5031770;28;19923;-82
2023/09/15 15:22:13;;;;;;;;;;;;;;;7.13;100.00;99459.84;5014923;28;19955;-82
2023/09/15 15:24:38;;;;;;;;;;;;;;;7.19;100.00;99449.94;5032849;28;19921;-86
2023/09/15 15:27:04;;;;;;;;;;;;;;;7.24;100.00;99453.31;5032779;28;19917;-84
2023/09/15 15:29:30;;;;;;;;;;;;;;;7.20;100.00;99453.47;5032607;28;19928;-84
2023/09/15 15:31:55;;;;;;;;;;;;;;;7.23;100.00;99448.09;5032927;28;19917;-81
2023/09/15 15:34:21;;;;;;;;;;;;;;;7.24;100.00;99441.88;5031200;28;20292;-81
2023/09/15 15:36:46;;;;;;;;;;;;;;;7.23;100.00;99445.44;5031694;28;20423;-82
2023/09/15 15:39:11;;;;;;;;;;;;;;;7.26;100.00;99445.34;5031545;28;20333;-85
2023/09/15 15:41:36;;;;;;;;;;;;;;;7.22;100.00;99451.63;5032080;28;19959;-81
2023/09/15 15:44:02;;;;;;;;;;;;;;;7.27;100.00;99447.03;5032556;28;19932;-83
2023/09/15 15:46:28;;;;;;;;;;;;;;;7.30;100.00;99446.94;5032260;28;20438;-82
2023/09/15 15:48:53;;;;;;;;;;;;;;;7.35;100.00;99438.88;5030716;28;20004;-83
2023/09/15 15:51:18;;;;;;;;;;;;;;;7.33;100.00;99446.84;5032092;28;19955;-83
2023/09/15 15:53:43;;;;;;;;;;;;;;;7.38;100.00;99439.63;5032009;28;19917;-84
2023/09/15 15:56:09;;;;;;;;;;;;;;;7.33;100.00;99441.56;5032228;28;20411;-84
2023/09/15 15:58:34;;;;;;;;;;;;;;;7.32;100.00;99449.53;5032339;28;19991;-82
2023/09/15 16:01:00;;;;;;;;;;;;;;;7.32;100.00;99446.88;5032257;28;19917;-82
2023/09/15 16:03:26;;;;;;;;;;;;;;;7.35;100.00;99449.41;5030980;28;19921;-82
2023/09/15 16:05:54;;;;;;;;;;;;;;;7.42;100.00;99445.66;5032160;28;19966;-82
2023/09/15 16:08:20;;;;;;;;;;;;;;;7.43;100.00;99447.38;5031655;28;19928;-82
2023/09/15 16:10:45;;;;;;;;;;;;;;;7.48;100.00;99449.84;5032152;28;19917;-83
2023/09/15 16:13:10;;;;;;;;;;;;;;;7.46;100.00;99449.91;5032125;28;19917;-82
2023/09/15 16:15:36;;;;;;;;;;;;;;;7.46;100.00;99442.84;5032047;28;19957;-87
2023/09/15 16:18:07;;;;;;;;;;;;;;;7.46;100.00;99437.56;5031092;28;19921;-83
2023/09/15 16:20:37;;;;;;;;;;;;;;;7.49;100.00;99436.59;5031717;28;19917;-82
2023/09/15 16:23:07;;;;;;;;;;;;;;;7.51;100.00;99433.91;5031705;28;20487;-82
2023/09/15 16:25:33;;;;;;;;;;;;;;;7.51;100.00;99431.28;5031897;28;19948;-83
2023/09/15 16:27:58;;;;;;;;;;;;;;;7.53;100.00;99440.88;5031152;28;20411;-83
2023/09/15 16:30:23;;;;;;;;;;;;;;;7.53;100.00;99437.34;5031876;28;20319;-82
2023/09/15 16:32:49;;;;;;;;;;;;;;;7.59;100.00;99442.41;5012897;28;19971;-82
2023/09/15 16:35:14;;;;;;;;;;;;;;;7.59;100.00;99445.91;5031881;28;19924;-83
2023/09/15 16:37:41;;;;;;;;;;;;;;;7.60;100.00;99450.25;5031856;28;19917;-82
2023/09/15 16:40:07;;;;;;;;;;;;;;;7.62;100.00;99442.31;5032004;28;19917;-82
2023/09/15 16:42:32;;;;;;;;;;;;;;;7.60;100.00;99430.97;5032146;28;20357;-82
2023/09/15 16:44:57;;;;;;;;;;;;;;;7.67;100.00;99439.50;5031838;28;20331;-82
2023/09/15 16:47:27;;;;;;;;;;;;;;;7.67;100.00;99437.72;5031906;28;19986;-82
2023/09/15 16:49:52;;;;;;;;;;;;;;;7.69;100.00;99429.75;5033968;28;19928;-83
2023/09/15 16:52:18;;;;;;;;;;;;;;;7.70;100.00;99439.38;5035428;28;20145;-82
2023/09/15 16:54:43;;;;;;;;;;;;;;;7.71;100.00;99431.44;5036755;28;19932;-82
2023/09/15 16:57:08;;;;;;;;;;;;;;;7.71;100.00;99426.16;5035342;28;19917;-83
2023/09/15 16:59:34;;;;;;;;;;;;;;;7.72;100.00;99429.63;5017655;28;20011;-82
2023/09/15 17:02:01;;;;;;;;;;;;;;;7.77;100.00;99431.19;5034946;28;19921;-82
2023/09/15 17:04:27;;;;;;;;;;;;;;;7.77;100.00;99425.03;5032772;28;19925;-85
2023/09/15 17:06:52;;;;;;;;;;;;;;;7.82;100.00;99423.13;5015778;28;19929;-82
2023/09/15 17:09:17;;;;;;;;;;;;;;;7.80;100.00;99415.25;5036068;28;19955;-82
2023/09/15 17:11:43;;;;;;;;;;;;;;;7.81;100.00;99422.25;5035242;28;19921;-81
2023/09/15 17:14:08;;;;;;;;;;;;;;;7.80;100.00;99419.66;5017326;28;19924;-82
2023/09/15 17:16:33;;;;;;;;;;;;;;;7.80;100.00;99423.19;5035341;28;19921;-82
2023/09/15 17:18:58;;;;;;;;;;;;;;;7.76;100.00;99424.19;5033376;28;19974;-82
2023/09/15 17:21:24;;;;;;;;;;;;;;;7.76;100.00;99424.19;5017004;28;20465;-86
2023/09/15 17:23:49;;;;;;;;;;;;;;;7.79;100.00;99434.63;5036256;28;19935;-83
2023/09/15 17:26:14;;;;;;;;;;;;;;;7.81;100.00;99429.31;5035236;28;19921;-82
2023/09/15 17:28:39;;;;;;;;;;;;;;;7.79;100.00;99429.34;5016934;28;19963;-83
2023/09/15 17:31:05;;;;;;;;;;;;;;;7.84;100.00;99423.06;5035028;28;20751;-82
2023/09/15 17:33:30;;;;;;;;;;;;;;;7.79;100.00;99421.44;5015821;28;19924;-81
2023/09/15 17:36:05;;;;;;;;;;;;;;;7.84;100.00;99425.69;5017368;28;20395;-88
2023/09/15 17:38:30;;;;;;;;;;;;;;;7.84;100.00;99425.69;5033294;28;19917;-85
2023/09/15 17:40:55;;;;;;;;;;;;;;;7.85;100.00;99424.75;5033505;28;20372;-81
2023/09/15 17:43:21;;;;;;;;;;;;;;;7.84;100.00;99418.63;5034188;28;19925;-82
2023/09/15 17:45:52;;;;;;;;;;;;;;;7.84;100.00;99412.50;5033090;28;19929;-82
2023/09/15 17:48:18;;;;;;;;;;;;;;;7.85;100.00;99425.66;5032231;28;19921;-83
2023/09/15 17:50:43;;;;;;;;;;;;;;;7.86;100.00;99422.06;5032573;28;20423;-82
2023/09/15 17:53:08;;;;;;;;;;;;;;;7.87;100.00;99425.59;5032221;28;19925;-82
2023/09/15 17:55:34;;;;;;;;;;;;;;;7.86;100.00;99427.34;5031033;28;19928;-82
2023/09/15 17:57:59;;;;;;;;;;;;;;;7.88;100.00;99427.28;5016689;28;19917;-91
2023/09/15 18:00:25;;;;;;;;;;;;;;;7.95;100.00;99419.09;5029575;28;19921;-86
2023/09/15 18:02:51;;;;;;;;;;;;;;;7.91;100.00;99416.63;5032574;28;19921;-83
2023/09/15 18:05:16;;;;;;;;;;;;;;;7.93;100.00;99414.78;5014910;28;20399;-84
2023/09/15 18:07:41;;;;;;;;;;;;;;;7.92;100.00;99415.72;5034169;28;19913;-90
2023/09/15 18:10:08;;;;;;;;;;;;;;;7.93;100.00;99420.94;5017111;28;20808;-81
2023/09/15 18:12:33;;;;;;;;;;;;;;;7.96;100.00;99425.22;5013445;28;19921;-82
2023/09/15 18:14:59;;;;;;;;;;;;;;;7.96;100.00;99419.94;5031226;28;19921;-83
2023/09/15 18:17:24;;;;;;;;;;;;;;;7.93;100.00;99426.22;5031038;28;19996;-81
2023/09/15 18:19:49;;;;;;;;;;;;;;;7.98;100.00;99423.41;5023229;28;19921;-88
2023/09/15 18:22:16;;;;;;;;;;;;;;;7.92;100.00;99424.47;5031949;28;19967;-84
2023/09/15 18:24:41;;;;;;;;;;;;;;;7.95;100.00;99420.88;5034403;28;19917;-88
2023/09/15 18:27:07;;;;;;;;;;;;;;;7.99;100.00;99427.75;5032664;28;19931;-83
2023/09/15 18:29:33;;;;;;;;;;;;;;;7.99;100.00;99425.97;5015981;28;19925;-83
2023/09/15 18:31:58;;;;;;;;;;;;;;;7.98;100.00;99428.69;5034040;28;19925;-82
2023/09/15 18:34:23;;;;;;;;;;;;;;;7.95;100.00;99426.16;5015213;28;19917;-82
2023/09/15 18:36:49;;;;;;;;;;;;;;;8.02;100.00;99434.69;5032869;28;19932;-81